sensor_id;sensor_type;location;lat;lon;timestamp;temperature;humidity
57719;DHT22;43561;50.090;18.522;2023-12-04T00:07:30;-3.20;99.90
57719;DHT22;43561;50.090;18.522;2023-12-04T00:17:32;-3.10;99.90
57719;DHT22;43561;50.090;18.522;2023-12-04T00:27:37;-3.10;99.90
57719;DHT22;43561;50.090;18.522;2023-12-04T00:37:39;-3.00;99.90
57719;DHT22;43561;50.090;18.522;2023-12-04T00:47:41;-3.00;99.90
57719;DHT22;43561;50.090;18.522;2023-12-04T00:57:43;-3.00;99.90
57719;DHT22;43561;50.090;18.522;2023-12-04T01:07:45;-3.00;99.90
57719;DHT22;43561;50.090;18.522;2023-12-04T01:17:47;-3.10;99.90
57719;DHT22;43561;50.090;18.522;2023-12-04T01:27:50;-3.10;99.90
57719;DHT22;43561;50.090;18.522;2023-12-04T01:37:51;-3.10;99.90
57719;DHT22;43561;50.090;18.522;2023-12-04T01:47:54;-3.00;99.90
57719;DHT22;43561;50.090;18.522;2023-12-04T01:57:56;-2.90;99.90
57719;DHT22;43561;50.090;18.522;2023-12-04T02:07:59;-3.00;99.90
57719;DHT22;43561;50.090;18.522;2023-12-04T02:18:03;-3.00;99.90
57719;DHT22;43561;50.090;18.522;2023-12-04T02:28:07;-2.90;99.90
57719;DHT22;43561;50.090;18.522;2023-12-04T02:38:10;-2.90;99.90
57719;DHT22;43561;50.090;18.522;2023-12-04T02:48:12;-3.20;99.90
57719;DHT22;43561;50.090;18.522;2023-12-04T02:58:14;-3.50;99.90
57719;DHT22;43561;50.090;18.522;2023-12-04T03:08:16;-3.70;99.90
57719;DHT22;43561;50.090;18.522;2023-12-04T03:18:18;-4.10;99.90
57719;DHT22;43561;50.090;18.522;2023-12-04T03:28:20;-4.50;99.90
57719;DHT22;43561;50.090;18.522;2023-12-04T03:38:22;-4.80;99.90
57719;DHT22;43561;50.090;18.522;2023-12-04T03:48:24;-4.90;99.90
57719;DHT22;43561;50.090;18.522;2023-12-04T03:58:26;-4.60;99.90
57719;DHT22;43561;50.090;18.522;2023-12-04T04:08:28;-4.20;99.90
57719;DHT22;43561;50.090;18.522;2023-12-04T04:18:30;-3.80;99.90
57719;DHT22;43561;50.090;18.522;2023-12-04T04:28:32;-3.80;99.90
57719;DHT22;43561;50.090;18.522;2023-12-04T04:38:34;-3.70;99.90
57719;DHT22;43561;50.090;18.522;2023-12-04T04:48:36;-3.70;99.90
57719;DHT22;43561;50.090;18.522;2023-12-04T04:58:38;-3.80;99.90
57719;DHT22;43561;50.090;18.522;2023-12-04T05:08:40;-3.90;99.90
57719;DHT22;43561;50.090;18.522;2023-12-04T05:18:42;-4.10;99.90
57719;DHT22;43561;50.090;18.522;2023-12-04T05:28:44;-4.10;99.90
57719;DHT22;43561;50.090;18.522;2023-12-04T05:38:46;-4.00;99.90
57719;DHT22;43561;50.090;18.522;2023-12-04T05:48:48;-4.10;99.90
57719;DHT22;43561;50.090;18.522;2023-12-04T05:58:50;-4.00;99.90
57719;DHT22;43561;50.090;18.522;2023-12-04T06:08:52;-4.00;99.90
57719;DHT22;43561;50.090;18.522;2023-12-04T06:18:54;-4.10;99.90
57719;DHT22;43561;50.090;18.522;2023-12-04T06:28:57;-4.30;99.90
57719;DHT22;43561;50.090;18.522;2023-12-04T06:38:59;-4.60;99.90
57719;DHT22;43561;50.090;18.522;2023-12-04T06:49:04;-4.50;99.90
57719;DHT22;43561;50.090;18.522;2023-12-04T06:59:07;-5.00;99.90
57719;DHT22;43561;50.090;18.522;2023-12-04T07:09:09;-5.20;99.90
57719;DHT22;43561;50.090;18.522;2023-12-04T07:19:11;-5.00;99.90
57719;DHT22;43561;50.090;18.522;2023-12-04T07:29:13;-4.90;99.90
57719;DHT22;43561;50.090;18.522;2023-12-04T07:39:15;-4.70;99.90
57719;DHT22;43561;50.090;18.522;2023-12-04T07:49:17;-4.20;99.90
57719;DHT22;43561;50.090;18.522;2023-12-04T07:59:19;-3.90;99.90
57719;DHT22;43561;50.090;18.522;2023-12-04T08:09:21;-3.60;99.90
57719;DHT22;43561;50.090;18.522;2023-12-04T08:19:23;-3.60;99.90
57719;DHT22;43561;50.090;18.522;2023-12-04T08:29:25;-3.60;99.90
57719;DHT22;43561;50.090;18.522;2023-12-04T08:39:27;-2.80;99.90
57719;DHT22;43561;50.090;18.522;2023-12-04T08:49:29;-2.30;99.90
57719;DHT22;43561;50.090;18.522;2023-12-04T08:59:43;-1.90;99.90
57719;DHT22;43561;50.090;18.522;2023-12-04T09:09:45;-1.50;99.90
57719;DHT22;43561;50.090;18.522;2023-12-04T09:19:47;-1.20;99.90
57719;DHT22;43561;50.090;18.522;2023-12-04T09:29:49;-1.20;99.90
57719;DHT22;43561;50.090;18.522;2023-12-04T09:39:51;-0.70;99.90
57719;DHT22;43561;50.090;18.522;2023-12-04T09:49:54;-0.60;99.90
57719;DHT22;43561;50.090;18.522;2023-12-04T09:59:58;-0.60;99.90
57719;DHT22;43561;50.090;18.522;2023-12-04T10:10:02;-0.40;99.90
57719;DHT22;43561;50.090;18.522;2023-12-04T10:20:22;-0.30;99.90
57719;DHT22;43561;50.090;18.522;2023-12-04T10:30:29;-0.20;99.90
57719;DHT22;43561;50.090;18.522;2023-12-04T10:40:35;-0.50;99.90
57719;DHT22;43561;50.090;18.522;2023-12-04T10:50:39;-0.40;99.90
57719;DHT22;43561;50.090;18.522;2023-12-04T11:00:47;-0.40;99.90
57719;DHT22;43561;50.090;18.522;2023-12-04T11:10:59;-0.50;99.90
57719;DHT22;43561;50.090;18.522;2023-12-04T11:21:12;-0.60;99.90
57719;DHT22;43561;50.090;18.522;2023-12-04T11:31:14;-0.40;99.90
57719;DHT22;43561;50.090;18.522;2023-12-04T12:01:43;-0.70;99.90
57719;DHT22;43561;50.090;18.522;2023-12-04T12:11:45;-0.80;99.90
57719;DHT22;43561;50.090;18.522;2023-12-04T12:21:50;-0.80;99.90
57719;DHT22;43561;50.090;18.522;2023-12-04T12:31:52;-0.80;99.90
57719;DHT22;43561;50.090;18.522;2023-12-04T12:41:54;-0.90;99.90
57719;DHT22;43561;50.090;18.522;2023-12-04T12:51:56;-0.90;99.90
57719;DHT22;43561;50.090;18.522;2023-12-04T13:01:58;-1.00;99.90
57719;DHT22;43561;50.090;18.522;2023-12-04T13:12:02;-1.00;99.90
57719;DHT22;43561;50.090;18.522;2023-12-04T13:22:04;-0.90;99.90
57719;DHT22;43561;50.090;18.522;2023-12-04T13:32:07;-1.00;99.90
57719;DHT22;43561;50.090;18.522;2023-12-04T13:42:09;-1.10;99.90
57719;DHT22;43561;50.090;18.522;2023-12-04T13:52:11;-1.30;99.90
57719;DHT22;43561;50.090;18.522;2023-12-04T14:02:13;-1.40;99.90
57719;DHT22;43561;50.090;18.522;2023-12-04T14:12:16;-1.50;99.90
57719;DHT22;43561;50.090;18.522;2023-12-04T14:22:18;-1.60;99.90
57719;DHT22;43561;50.090;18.522;2023-12-04T14:32:20;-1.60;99.90
57719;DHT22;43561;50.090;18.522;2023-12-04T14:42:27;-1.70;99.90
57719;DHT22;43561;50.090;18.522;2023-12-04T14:52:29;-1.70;99.90
57719;DHT22;43561;50.090;18.522;2023-12-04T15:02:31;-1.70;99.90
57719;DHT22;43561;50.090;18.522;2023-12-04T15:12:33;-1.80;99.90
57719;DHT22;43561;50.090;18.522;2023-12-04T15:22:35;-1.80;99.90
57719;DHT22;43561;50.090;18.522;2023-12-04T15:32:38;-1.80;99.90
57719;DHT22;43561;50.090;18.522;2023-12-04T15:42:40;-1.80;99.90
57719;DHT22;43561;50.090;18.522;2023-12-04T15:52:42;-1.90;99.90
57719;DHT22;43561;50.090;18.522;2023-12-04T16:02:44;-1.80;99.90
57719;DHT22;43561;50.090;18.522;2023-12-04T16:12:46;-2.00;99.90
57719;DHT22;43561;50.090;18.522;2023-12-04T16:22:48;-1.90;99.90
57719;DHT22;43561;50.090;18.522;2023-12-04T16:32:50;-2.00;99.90
57719;DHT22;43561;50.090;18.522;2023-12-04T16:42:52;-2.10;99.90
57719;DHT22;43561;50.090;18.522;2023-12-04T16:53:03;-2.10;99.90
57719;DHT22;43561;50.090;18.522;2023-12-04T17:03:05;-2.10;99.90
57719;DHT22;43561;50.090;18.522;2023-12-04T17:13:08;-2.10;99.90
57719;DHT22;43561;50.090;18.522;2023-12-04T17:23:10;-2.20;99.90
57719;DHT22;43561;50.090;18.522;2023-12-04T17:33:12;-2.20;99.90
57719;DHT22;43561;50.090;18.522;2023-12-04T17:43:14;-2.30;99.90
57719;DHT22;43561;50.090;18.522;2023-12-04T17:53:16;-2.30;99.90
57719;DHT22;43561;50.090;18.522;2023-12-04T18:03:18;-2.30;99.90
57719;DHT22;43561;50.090;18.522;2023-12-04T18:13:20;-2.40;99.90
57719;DHT22;43561;50.090;18.522;2023-12-04T18:23:23;-2.30;99.90
57719;DHT22;43561;50.090;18.522;2023-12-04T18:33:25;-2.40;99.90
57719;DHT22;43561;50.090;18.522;2023-12-04T18:43:27;-2.40;99.90
57719;DHT22;43561;50.090;18.522;2023-12-04T18:53:29;-2.40;99.90
57719;DHT22;43561;50.090;18.522;2023-12-04T19:03:31;-2.50;99.90
57719;DHT22;43561;50.090;18.522;2023-12-04T19:13:34;-2.50;99.90
57719;DHT22;43561;50.090;18.522;2023-12-04T19:23:36;-2.40;99.90
57719;DHT22;43561;50.090;18.522;2023-12-04T19:33:38;-2.40;99.90
57719;DHT22;43561;50.090;18.522;2023-12-04T19:43:40;-2.50;99.90
57719;DHT22;43561;50.090;18.522;2023-12-04T19:53:42;-2.50;99.90
57719;DHT22;43561;50.090;18.522;2023-12-04T20:03:44;-2.40;99.90
57719;DHT22;43561;50.090;18.522;2023-12-04T20:13:46;-2.50;99.90
57719;DHT22;43561;50.090;18.522;2023-12-04T20:23:48;-2.30;99.90
57719;DHT22;43561;50.090;18.522;2023-12-04T20:33:51;-2.40;99.90
57719;DHT22;43561;50.090;18.522;2023-12-04T20:43:53;-2.40;99.90
57719;DHT22;43561;50.090;18.522;2023-12-04T20:53:55;-2.40;99.90
57719;DHT22;43561;50.090;18.522;2023-12-04T21:03:57;-2.30;99.90
57719;DHT22;43561;50.090;18.522;2023-12-04T21:13:59;-2.20;99.90
57719;DHT22;43561;50.090;18.522;2023-12-04T21:24:02;-2.10;99.90
57719;DHT22;43561;50.090;18.522;2023-12-04T21:34:04;-2.40;99.90
57719;DHT22;43561;50.090;18.522;2023-12-04T21:44:06;-2.50;99.90
57719;DHT22;43561;50.090;18.522;2023-12-04T21:54:26;-2.60;99.90
57719;DHT22;43561;50.090;18.522;2023-12-04T22:04:31;-2.50;99.90
57719;DHT22;43561;50.090;18.522;2023-12-04T22:14:33;-2.70;99.90
57719;DHT22;43561;50.090;18.522;2023-12-04T22:24:35;-2.60;99.90
57719;DHT22;43561;50.090;18.522;2023-12-04T22:34:37;-2.60;99.90
57719;DHT22;43561;50.090;18.522;2023-12-04T22:44:39;-2.60;99.90
57719;DHT22;43561;50.090;18.522;2023-12-04T22:54:42;-2.60;99.90
57719;DHT22;43561;50.090;18.522;2023-12-04T23:04:44;-2.60;99.90
57719;DHT22;43561;50.090;18.522;2023-12-04T23:14:46;-2.80;99.90
57719;DHT22;43561;50.090;18.522;2023-12-04T23:24:48;-3.00;99.90
57719;DHT22;43561;50.090;18.522;2023-12-04T23:34:50;-3.10;99.90
57719;DHT22;43561;50.090;18.522;2023-12-04T23:44:59;-3.20;99.90
57719;DHT22;43561;50.090;18.522;2023-12-04T23:55:01;-3.10;99.90
